createdAt,value
2023-09-08T00:00:00.042Z,7.55
2023-09-08T00:02:28.062Z,6.38
2023-09-08T00:04:55.747Z,6.43
2023-09-08T00:07:22.855Z,9.05
2023-09-08T00:09:49.842Z,8.95
2023-09-08T00:12:17.020Z,7.10
2023-09-08T00:14:44.200Z,7.97
2023-09-08T00:17:11.205Z,7.88
2023-09-08T00:19:39.593Z,5.20
2023-09-08T00:22:09.917Z,6.25
2023-09-08T00:24:36.974Z,6.50
2023-09-08T00:27:03.913Z,7.15
2023-09-08T00:29:30.842Z,8.25
2023-09-08T00:31:57.724Z,9.23
2023-09-08T00:34:24.630Z,6.32
2023-09-08T00:36:52.473Z,7.13
2023-09-08T00:39:19.392Z,7.38
2023-09-08T00:41:46.256Z,9.93
2023-09-08T00:44:13.199Z,10.00
2023-09-08T00:46:41.220Z,7.55
2023-09-08T00:49:10.450Z,9.20
2023-09-08T00:51:39.213Z,13.50
2023-09-08T00:54:07.955Z,7.07
2023-09-08T00:56:36.249Z,10.35
2023-09-08T00:59:03.888Z,6.18
2023-09-08T01:01:31.066Z,8.23
2023-09-08T01:03:58.378Z,8.00
2023-09-08T01:06:25.640Z,9.82
2023-09-08T01:08:53.899Z,13.70
2023-09-08T01:11:21.482Z,9.13
2023-09-08T01:13:49.167Z,8.10
2023-09-08T01:16:15.984Z,8.98
2023-09-08T01:18:43.074Z,10.02
2023-09-08T01:21:33.413Z,7.15
2023-09-08T01:24:12.437Z,7.80
2023-09-08T01:26:42.877Z,9.63
2023-09-08T01:29:11.984Z,11.95
2023-09-08T01:31:39.656Z,8.30
2023-09-08T01:34:08.468Z,11.85
2023-09-08T01:36:38.576Z,10.90
2023-09-08T01:39:05.831Z,6.68
2023-09-08T01:41:33.697Z,7.75
2023-09-08T01:44:06.402Z,11.90
2023-09-08T01:46:35.743Z,7.72
2023-09-08T01:49:02.875Z,9.38
2023-09-08T01:51:30.039Z,12.95
2023-09-08T01:53:56.963Z,8.68
2023-09-08T01:56:24.378Z,9.93
2023-09-08T01:58:51.669Z,7.88
2023-09-08T02:01:18.768Z,10.25
2023-09-08T02:03:45.638Z,10.35
2023-09-08T02:06:12.861Z,11.57
2023-09-08T02:08:39.892Z,12.77
2023-09-08T02:11:07.614Z,10.13
2023-09-08T02:13:34.594Z,9.73
2023-09-08T02:16:01.985Z,6.88
2023-09-08T02:18:30.287Z,10.70
2023-09-08T02:20:57.606Z,7.88
2023-09-08T02:23:25.257Z,6.95
2023-09-08T02:25:52.310Z,7.30
2023-09-08T02:28:19.904Z,7.35
2023-09-08T02:30:47.663Z,9.32
2023-09-08T02:33:14.692Z,9.70
2023-09-08T02:35:41.835Z,9.25
2023-09-08T02:38:09.884Z,11.38
2023-09-08T02:40:37.817Z,11.18
2023-09-08T02:43:06.115Z,10.27
2023-09-08T02:45:35.202Z,8.75
2023-09-08T02:48:04.104Z,11.77
2023-09-08T02:50:31.608Z,9.40
2023-09-08T02:52:58.522Z,10.63
2023-09-08T02:55:25.360Z,12.02
2023-09-08T02:57:52.867Z,10.77
2023-09-08T03:00:20.122Z,9.23
2023-09-08T03:02:47.543Z,10.18
2023-09-08T03:05:15.054Z,12.65
2023-09-08T03:07:42.217Z,11.10
2023-09-08T03:10:10.549Z,10.38
2023-09-08T03:12:37.722Z,11.85
2023-09-08T03:15:05.549Z,12.15
2023-09-08T03:17:32.964Z,9.43
2023-09-08T03:20:00.041Z,11.73
2023-09-08T03:22:27.469Z,10.68
2023-09-08T03:24:54.760Z,13.25
2023-09-08T03:27:22.821Z,11.32
2023-09-08T03:29:50.453Z,11.60
2023-09-08T03:32:17.856Z,11.57
2023-09-08T03:34:45.275Z,13.30
2023-09-08T03:37:12.236Z,11.43
2023-09-08T03:39:39.712Z,10.25
2023-09-08T03:42:07.154Z,11.07
2023-09-08T03:44:35.053Z,10.20
2023-09-08T03:47:04.416Z,13.18
2023-09-08T03:49:32.338Z,12.23
2023-09-08T03:52:00.647Z,12.10
2023-09-08T03:54:27.609Z,12.80
2023-09-08T03:56:55.773Z,13.18
2023-09-08T03:59:22.921Z,12.55
2023-09-08T04:01:49.986Z,12.98
2023-09-08T04:04:17.252Z,12.98
2023-09-08T04:06:44.348Z,13.32
2023-09-08T04:09:11.242Z,9.05
2023-09-08T04:11:38.210Z,10.23
2023-09-08T04:14:05.261Z,8.07
2023-09-08T04:16:32.348Z,8.40
2023-09-08T04:18:59.719Z,5.82
2023-09-08T04:21:27.638Z,6.40
2023-09-08T04:23:55.149Z,6.50
2023-09-08T04:26:22.508Z,5.07
2023-09-08T04:28:49.816Z,5.10
2023-09-08T04:31:17.976Z,5.07
2023-09-08T04:33:45.289Z,4.90
2023-09-08T04:36:14.527Z,6.50
2023-09-08T04:38:43.057Z,7.50
2023-09-08T04:41:12.185Z,6.22
2023-09-08T04:43:39.523Z,4.90
2023-09-08T04:46:06.548Z,9.95
2023-09-08T04:48:34.682Z,7.88
2023-09-08T04:51:02.520Z,5.35
2023-09-08T04:53:30.343Z,6.82
2023-09-08T04:55:58.000Z,6.43
2023-09-08T04:58:25.208Z,6.05
2023-09-08T05:00:52.714Z,7.13
2023-09-08T05:03:19.864Z,5.13
2023-09-08T05:05:47.055Z,4.65
2023-09-08T05:08:15.106Z,5.78
2023-09-08T05:10:42.095Z,7.40
2023-09-08T05:13:14.084Z,6.30
2023-09-08T05:15:53.636Z,5.22
2023-09-08T05:18:20.884Z,5.25
2023-09-08T05:20:49.697Z,4.90
2023-09-08T05:23:16.995Z,6.50
2023-09-08T05:25:43.936Z,5.90
2023-09-08T05:28:10.776Z,6.60
2023-09-08T05:30:37.729Z,7.93
2023-09-08T05:33:05.465Z,4.80
2023-09-08T05:35:32.503Z,5.68
2023-09-08T05:37:59.365Z,4.18
2023-09-08T05:40:27.634Z,5.10
2023-09-08T05:42:54.817Z,6.85
2023-09-08T05:45:22.279Z,4.15
2023-09-08T05:47:52.155Z,4.38
2023-09-08T05:50:20.015Z,5.15
2023-09-08T05:52:47.304Z,3.85
2023-09-08T05:55:14.332Z,3.92
2023-09-08T05:57:42.108Z,7.22
2023-09-08T06:00:09.968Z,4.53
2023-09-08T06:02:47.530Z,4.75
2023-09-08T06:05:17.394Z,3.92
2023-09-08T06:07:57.093Z,7.10
2023-09-08T06:10:32.036Z,4.57
2023-09-08T06:13:02.224Z,5.90
2023-09-08T06:15:29.564Z,3.78
2023-09-08T06:17:56.791Z,5.47
2023-09-08T06:20:25.474Z,6.82
2023-09-08T06:22:52.408Z,5.03
2023-09-08T06:25:20.080Z,3.38
2023-09-08T06:27:47.309Z,8.18
2023-09-08T06:30:17.334Z,5.38
2023-09-08T06:32:44.726Z,8.18
2023-09-08T06:35:12.566Z,15.18
2023-09-08T06:37:40.272Z,10.50
2023-09-08T06:40:08.559Z,7.78
2023-09-08T06:42:35.787Z,9.75
2023-09-08T06:45:12.907Z,7.32
2023-09-08T06:47:40.061Z,6.82
2023-09-08T06:50:08.102Z,4.80
2023-09-08T06:52:35.179Z,2.47
2023-09-08T06:55:02.345Z,3.13
2023-09-08T06:57:29.600Z,3.78
2023-09-08T06:59:56.447Z,3.90
2023-09-08T07:02:23.640Z,3.78
2023-09-08T07:04:50.851Z,4.10
2023-09-08T07:07:19.920Z,2.97
2023-09-08T07:09:47.935Z,3.05
2023-09-08T07:12:15.187Z,3.22
2023-09-08T07:14:42.240Z,3.13
2023-09-08T07:17:09.233Z,3.15
2023-09-08T07:19:36.321Z,4.30
2023-09-08T07:22:03.290Z,5.15
2023-09-08T07:24:30.765Z,4.28
2023-09-08T07:26:57.911Z,3.05
2023-09-08T07:29:25.359Z,4.10
2023-09-08T07:31:52.443Z,2.95
2023-09-08T07:34:19.332Z,4.13
2023-09-08T07:36:46.257Z,3.60
2023-09-08T07:39:13.414Z,3.30
2023-09-08T07:41:41.602Z,4.03
2023-09-08T07:44:10.419Z,2.17
2023-09-08T07:46:37.362Z,4.60
2023-09-08T07:49:04.371Z,3.33
2023-09-08T07:51:32.122Z,2.55
2023-09-08T07:53:59.322Z,2.42
2023-09-08T07:56:26.433Z,3.05
2023-09-08T07:58:53.244Z,2.40
2023-09-08T08:01:20.160Z,2.25
2023-09-08T08:03:47.091Z,2.13
2023-09-08T08:06:14.032Z,3.17
2023-09-08T08:08:41.570Z,3.22
2023-09-08T08:11:13.597Z,1.98
2023-09-08T08:13:40.660Z,2.38
2023-09-08T08:16:09.046Z,2.42
2023-09-08T08:18:36.458Z,1.60
2023-09-08T08:21:04.723Z,2.53
2023-09-08T08:23:32.290Z,2.58
2023-09-08T08:26:00.261Z,2.67
2023-09-08T08:28:27.200Z,2.70
2023-09-08T08:30:54.152Z,2.92
2023-09-08T08:33:22.230Z,2.85
2023-09-08T08:35:53.831Z,4.10
2023-09-08T08:38:21.022Z,2.55
2023-09-08T08:40:47.962Z,4.20
2023-09-08T08:43:15.045Z,5.82
2023-09-08T08:45:44.548Z,4.93
2023-09-08T08:48:13.003Z,3.00
2023-09-08T08:50:41.466Z,4.47
2023-09-08T08:53:10.297Z,3.33
2023-09-08T08:55:37.391Z,2.17
2023-09-08T08:58:07.720Z,3.42
2023-09-08T09:00:40.327Z,1.58
2023-09-08T09:03:15.409Z,2.85
2023-09-08T09:05:48.561Z,1.77
2023-09-08T09:08:17.727Z,3.88
2023-09-08T09:10:44.623Z,3.85
2023-09-08T09:13:11.463Z,2.13
2023-09-08T09:15:39.038Z,4.35
2023-09-08T09:18:07.391Z,2.55
2023-09-08T09:20:35.576Z,3.22
2023-09-08T09:23:02.724Z,4.20
2023-09-08T09:25:31.495Z,3.83
2023-09-08T09:28:01.711Z,2.08
2023-09-08T09:30:31.481Z,2.78
2023-09-08T09:33:03.434Z,2.45
2023-09-08T09:35:43.724Z,2.63
2023-09-08T09:38:11.155Z,2.40
2023-09-08T09:40:39.048Z,1.92
2023-09-08T09:43:07.137Z,3.63
2023-09-08T09:45:38.360Z,2.58
2023-09-08T09:48:06.738Z,5.80
2023-09-08T09:50:35.649Z,3.92
2023-09-08T09:53:04.547Z,2.97
2023-09-08T09:55:32.389Z,2.83
2023-09-08T09:58:01.841Z,2.13
2023-09-08T10:00:29.679Z,3.00
2023-09-08T10:02:57.771Z,3.42
2023-09-08T10:05:26.137Z,3.03
2023-09-08T10:07:53.290Z,2.75
2023-09-08T10:10:21.538Z,4.85
2023-09-08T10:12:57.936Z,2.72
2023-09-08T10:15:26.037Z,2.08
2023-09-08T10:17:58.677Z,3.25
2023-09-08T10:20:26.622Z,3.03
2023-09-08T10:23:17.022Z,2.42
2023-09-08T10:25:50.690Z,2.15
2023-09-08T10:28:18.850Z,2.05
2023-09-08T10:30:46.490Z,2.05
2023-09-08T10:33:14.150Z,4.03
2023-09-08T10:35:41.667Z,5.03
2023-09-08T10:38:29.954Z,4.40
2023-09-08T10:41:18.869Z,3.90
2023-09-08T10:44:02.379Z,1.85
2023-09-08T10:46:31.812Z,2.90
2023-09-08T10:49:04.945Z,2.83
2023-09-08T10:51:32.281Z,2.10
2023-09-08T10:53:59.519Z,1.58
2023-09-08T10:56:50.944Z,2.60
2023-09-08T11:01:45.115Z,2.92
2023-09-08T11:04:14.538Z,2.05
2023-09-08T11:06:41.534Z,3.97
2023-09-08T11:09:09.365Z,3.28
2023-09-08T11:11:37.998Z,1.92
2023-09-08T11:14:05.311Z,2.38
2023-09-08T11:16:34.439Z,5.15
2023-09-08T11:19:06.039Z,1.77
2023-09-08T11:21:36.381Z,5.35
2023-09-08T11:24:06.010Z,4.78
2023-09-08T11:26:36.254Z,3.25
2023-09-08T11:29:04.005Z,2.25
2023-09-08T11:31:30.986Z,4.57
2023-09-08T11:33:59.698Z,3.75
2023-09-08T11:36:27.019Z,1.80
2023-09-08T11:38:53.905Z,2.60
2023-09-08T11:41:24.747Z,3.60
2023-09-08T11:43:52.943Z,2.88
2023-09-08T11:46:20.762Z,4.30
2023-09-08T11:48:48.016Z,2.42
2023-09-08T11:51:16.068Z,2.78
2023-09-08T11:53:46.510Z,2.85
2023-09-08T11:56:13.448Z,6.00
2023-09-08T11:58:41.233Z,7.40
2023-09-08T12:01:08.541Z,5.25
2023-09-08T12:03:35.857Z,3.05
2023-09-08T12:06:03.805Z,3.60
2023-09-08T12:08:31.707Z,2.05
2023-09-08T12:10:58.633Z,2.67
2023-09-08T12:13:25.549Z,3.85
2023-09-08T12:15:52.566Z,2.50
2023-09-08T12:18:19.742Z,5.70
2023-09-08T12:20:46.661Z,4.55
2023-09-08T12:23:21.877Z,2.97
2023-09-08T12:25:50.221Z,4.82
2023-09-08T12:28:19.490Z,4.07
2023-09-08T12:30:46.686Z,4.45
2023-09-08T12:33:16.360Z,3.17
2023-09-08T12:35:47.645Z,2.10
2023-09-08T12:38:14.928Z,2.67
2023-09-08T12:40:41.828Z,2.08
2023-09-08T12:43:17.986Z,6.70
2023-09-08T12:45:54.669Z,2.70
2023-09-08T12:48:21.901Z,4.20
2023-09-08T12:50:52.092Z,2.45
2023-09-08T12:53:19.593Z,6.60
2023-09-08T12:55:47.789Z,2.17
2023-09-08T12:58:15.892Z,5.35
2023-09-08T13:00:43.997Z,2.78
2023-09-08T13:03:11.057Z,5.07
2023-09-08T13:05:39.964Z,9.95
2023-09-08T13:08:07.403Z,3.28
2023-09-08T13:10:34.863Z,4.30
2023-09-08T13:13:03.260Z,2.20
2023-09-08T13:15:30.449Z,5.20
2023-09-08T13:17:57.771Z,3.75
2023-09-08T13:20:24.994Z,2.50
2023-09-08T13:22:52.082Z,3.95
2023-09-08T13:25:19.082Z,2.47
2023-09-08T13:27:45.996Z,2.08
2023-09-08T13:30:14.749Z,3.13
2023-09-08T13:32:42.776Z,6.32
2023-09-08T13:35:10.009Z,2.63
2023-09-08T13:37:39.159Z,3.25
2023-09-08T13:40:07.222Z,2.30
2023-09-08T13:42:34.499Z,2.42
2023-09-08T13:45:02.009Z,5.53
2023-09-08T13:47:29.506Z,2.33
2023-09-08T13:49:58.856Z,3.80
2023-09-08T13:52:28.296Z,4.22
2023-09-08T13:57:29.351Z,3.38
2023-09-08T13:59:57.990Z,3.90
2023-09-08T14:04:56.736Z,4.75
2023-09-08T14:12:34.492Z,4.22
2023-09-08T14:15:03.326Z,3.63
2023-09-08T14:17:30.424Z,3.17
2023-09-08T14:19:57.417Z,5.15
2023-09-08T14:22:24.767Z,1.98
2023-09-08T14:24:51.577Z,2.00
2023-09-08T14:27:18.431Z,3.08
2023-09-08T14:29:45.268Z,5.10
2023-09-08T14:32:12.061Z,3.90
2023-09-08T14:34:38.930Z,3.17
2023-09-08T14:37:07.949Z,5.25
2023-09-08T14:39:36.677Z,2.88
2023-09-08T14:42:03.918Z,1.83
2023-09-08T14:44:30.934Z,3.05
2023-09-08T14:46:57.799Z,4.18
2023-09-08T14:49:24.633Z,3.67
2023-09-08T14:51:51.384Z,3.08
2023-09-08T14:54:19.063Z,2.40
2023-09-08T14:56:45.970Z,3.92
2023-09-08T14:59:12.951Z,3.05
2023-09-08T15:01:41.965Z,3.78
2023-09-08T15:04:09.219Z,3.80
2023-09-08T15:06:36.152Z,2.15
2023-09-08T15:09:03.182Z,4.95
2023-09-08T15:11:30.155Z,3.75
2023-09-08T15:13:57.013Z,5.10
2023-09-08T15:16:23.946Z,4.10
2023-09-08T15:18:51.446Z,3.80
2023-09-08T15:21:19.976Z,4.68
2023-09-08T15:23:46.898Z,6.22
2023-09-08T15:26:14.427Z,5.82
2023-09-08T15:28:41.346Z,11.25
2023-09-08T15:31:08.275Z,5.32
2023-09-08T15:33:35.543Z,15.38
2023-09-08T15:36:02.905Z,8.15
2023-09-08T15:38:29.927Z,6.18
2023-09-08T15:41:09.660Z,5.18
2023-09-08T15:43:41.588Z,6.63
2023-09-08T15:46:09.510Z,4.60
2023-09-08T15:48:38.019Z,4.45
2023-09-08T15:51:06.233Z,3.85
2023-09-08T15:53:33.172Z,9.30
2023-09-08T15:56:00.185Z,5.15
2023-09-08T15:58:27.159Z,4.47
2023-09-08T16:00:54.337Z,3.80
2023-09-08T16:03:22.000Z,6.07
2023-09-08T16:05:49.619Z,6.95
2023-09-08T16:08:16.740Z,3.75
2023-09-08T16:10:44.560Z,4.07
2023-09-08T16:13:11.745Z,3.83
2023-09-08T16:15:39.890Z,4.47
2023-09-08T16:18:07.352Z,8.38
2023-09-08T16:20:34.213Z,8.07
2023-09-08T16:23:01.372Z,9.38
2023-09-08T16:25:28.367Z,11.77
2023-09-08T16:27:55.291Z,7.97
2023-09-08T16:30:22.412Z,29.30
2023-09-08T16:32:49.306Z,7.90
2023-09-08T16:35:16.497Z,12.77
2023-09-08T16:37:44.665Z,9.15
2023-09-08T16:40:11.773Z,11.68
2023-09-08T16:42:38.637Z,12.18
2023-09-08T16:45:06.308Z,8.85
2023-09-08T16:47:33.435Z,15.25
2023-09-08T16:50:00.236Z,9.85
2023-09-08T16:52:27.232Z,23.05
2023-09-08T16:54:54.142Z,45.15
2023-09-08T16:57:21.083Z,22.63
2023-09-08T16:59:48.432Z,9.70
2023-09-08T17:02:15.471Z,10.68
2023-09-08T17:04:45.247Z,11.57
2023-09-08T17:07:12.606Z,7.90
2023-09-08T17:09:39.531Z,5.90
2023-09-08T17:12:08.366Z,6.97
2023-09-08T17:14:35.872Z,5.40
2023-09-08T17:17:02.853Z,8.35
2023-09-08T17:19:30.312Z,12.20
2023-09-08T17:21:58.270Z,7.22
2023-09-08T17:24:25.429Z,10.52
2023-09-08T17:26:52.365Z,11.13
2023-09-08T17:29:19.278Z,15.57
2023-09-08T17:31:46.117Z,16.35
2023-09-08T17:34:20.048Z,11.80
2023-09-08T17:36:56.871Z,12.75
2023-09-08T17:39:24.666Z,13.35
2023-09-08T17:41:51.696Z,12.18
2023-09-08T17:44:19.369Z,9.68
2023-09-08T17:46:46.552Z,8.10
2023-09-08T17:49:13.505Z,8.77
2023-09-08T17:51:40.387Z,10.68
2023-09-08T17:54:07.397Z,8.48
2023-09-08T17:56:35.392Z,10.85
2023-09-08T17:59:02.397Z,10.10
2023-09-08T18:01:29.451Z,9.80
2023-09-08T18:03:56.572Z,12.00
2023-09-08T18:06:23.599Z,6.75
2023-09-08T18:08:52.899Z,12.07
2023-09-08T18:11:22.233Z,10.13
2023-09-08T18:13:50.008Z,7.90
2023-09-08T18:16:17.298Z,11.80
2023-09-08T18:18:46.817Z,9.38
2023-09-08T18:21:14.603Z,8.55
2023-09-08T18:23:42.188Z,9.23
2023-09-08T18:26:09.410Z,7.40
2023-09-08T18:28:36.434Z,9.70
2023-09-08T18:31:03.785Z,8.57
2023-09-08T18:33:30.926Z,8.95
2023-09-08T18:35:57.900Z,10.13
2023-09-08T18:38:24.822Z,9.75
2023-09-08T18:40:52.057Z,10.02
2023-09-08T18:43:19.452Z,9.63
2023-09-08T18:45:47.324Z,10.32
2023-09-08T18:48:14.643Z,9.35
2023-09-08T18:50:43.175Z,7.97
2023-09-08T18:53:12.741Z,6.95
2023-09-08T18:55:39.697Z,10.48
2023-09-08T18:58:07.617Z,8.98
2023-09-08T19:00:34.884Z,9.80
2023-09-08T19:03:01.951Z,10.20
2023-09-08T19:05:29.438Z,11.32
2023-09-08T19:07:56.247Z,13.68
2023-09-08T19:10:23.142Z,7.00
2023-09-08T19:12:50.053Z,11.40
2023-09-08T19:15:18.450Z,9.05
2023-09-08T19:17:46.882Z,10.25
2023-09-08T19:20:13.902Z,9.57
2023-09-08T19:22:41.003Z,5.28
2023-09-08T19:25:09.167Z,5.25
2023-09-08T19:27:36.668Z,5.90
2023-09-08T19:30:06.976Z,9.23
2023-09-08T19:32:34.564Z,8.73
2023-09-08T19:35:01.631Z,6.28
2023-09-08T19:37:28.729Z,8.70
2023-09-08T19:39:55.711Z,6.88
2023-09-08T19:42:22.661Z,9.13
2023-09-08T19:44:49.525Z,12.30
2023-09-08T19:47:16.385Z,9.25
2023-09-08T19:49:43.953Z,9.85
2023-09-08T19:52:13.720Z,11.07
2023-09-08T19:54:40.661Z,8.07
2023-09-08T19:57:07.500Z,8.57
2023-09-08T19:59:34.384Z,8.73
2023-09-08T20:02:01.304Z,9.85
2023-09-08T20:04:28.269Z,6.90
2023-09-08T20:06:58.400Z,8.23
2023-09-08T20:09:25.799Z,6.10
2023-09-08T20:11:53.070Z,6.78
2023-09-08T20:14:20.035Z,8.13
2023-09-08T20:16:46.998Z,9.48
2023-09-08T20:19:14.345Z,10.60
2023-09-08T20:21:41.631Z,6.57
2023-09-08T20:24:08.809Z,7.68
2023-09-08T20:26:35.848Z,9.32
2023-09-08T20:29:03.300Z,5.90
2023-09-08T20:31:30.967Z,7.93
2023-09-08T20:33:57.885Z,8.75
2023-09-08T20:36:24.937Z,7.50
2023-09-08T20:38:51.881Z,7.90
2023-09-08T20:41:18.960Z,8.88
2023-09-08T20:43:46.458Z,7.13
2023-09-08T20:46:13.735Z,5.90
2023-09-08T20:48:41.127Z,7.40
2023-09-08T20:51:10.288Z,10.75
2023-09-08T20:53:40.003Z,6.50
2023-09-08T20:56:10.481Z,6.95
2023-09-08T20:58:38.391Z,5.10
2023-09-08T21:01:05.599Z,5.68
2023-09-08T21:03:32.881Z,5.57
2023-09-08T21:06:00.572Z,5.07
2023-09-08T21:08:27.883Z,6.43
2023-09-08T21:10:58.610Z,4.97
2023-09-08T21:13:25.906Z,8.25
2023-09-08T21:15:53.354Z,4.97
2023-09-08T21:18:20.424Z,6.75
2023-09-08T21:20:50.095Z,6.82
2023-09-08T21:23:18.363Z,7.35
2023-09-08T21:25:45.385Z,8.23
2023-09-08T21:28:12.350Z,7.75
2023-09-08T21:30:39.226Z,8.18
2023-09-08T21:33:07.035Z,6.15
2023-09-08T21:35:34.749Z,11.05
2023-09-08T21:38:01.865Z,9.30
2023-09-08T21:40:28.897Z,6.82
2023-09-08T21:42:55.844Z,8.27
2023-09-08T21:45:22.917Z,7.82
2023-09-08T21:47:51.453Z,5.53
2023-09-08T21:50:18.968Z,10.10
2023-09-08T21:52:46.247Z,8.98
2023-09-08T21:55:13.734Z,10.15
2023-09-08T21:57:40.791Z,7.15
2023-09-08T22:00:12.031Z,11.27
2023-09-08T22:02:39.381Z,7.65
2023-09-08T22:05:06.834Z,8.82
2023-09-08T22:07:34.150Z,9.45
2023-09-08T22:10:01.370Z,10.50
2023-09-08T22:12:28.401Z,7.97
2023-09-08T22:14:55.431Z,8.77
2023-09-08T22:17:22.888Z,8.85
2023-09-08T22:19:50.462Z,10.48
2023-09-08T22:22:17.388Z,9.25
2023-09-08T22:24:44.458Z,9.90
2023-09-08T22:27:11.318Z,6.20
2023-09-08T22:29:38.204Z,6.35
2023-09-08T22:32:05.433Z,6.50
2023-09-08T22:34:32.361Z,7.20
2023-09-08T22:36:59.333Z,9.18
2023-09-08T22:39:27.260Z,8.23
2023-09-08T22:41:54.211Z,8.82
2023-09-08T22:44:21.164Z,6.75
2023-09-08T22:46:48.326Z,8.25
2023-09-08T22:49:15.255Z,6.75
2023-09-08T22:51:42.629Z,10.30
2023-09-08T22:54:09.514Z,7.03
2023-09-08T22:56:36.373Z,8.30
2023-09-08T22:59:03.940Z,7.72
2023-09-08T23:01:30.892Z,6.45
2023-09-08T23:03:57.879Z,6.63
2023-09-08T23:06:24.865Z,9.35
2023-09-08T23:08:51.850Z,5.55
2023-09-08T23:11:18.825Z,8.75
2023-09-08T23:13:45.810Z,8.63
2023-09-08T23:16:13.804Z,8.27
2023-09-08T23:18:40.976Z,6.78
2023-09-08T23:21:08.043Z,5.25
2023-09-08T23:23:35.821Z,6.65
2023-09-08T23:26:05.975Z,7.68
2023-09-08T23:28:33.002Z,5.85
2023-09-08T23:30:59.863Z,6.68
2023-09-08T23:33:26.958Z,8.30
2023-09-08T23:35:53.926Z,7.88
2023-09-08T23:38:20.852Z,5.60
2023-09-08T23:40:47.858Z,6.20
2023-09-08T23:43:14.988Z,6.35
2023-09-08T23:45:46.162Z,6.93
2023-09-08T23:48:13.291Z,5.20
2023-09-08T23:50:59.658Z,5.88
2023-09-08T23:53:28.538Z,7.90
2023-09-08T23:55:56.581Z,8.10
2023-09-08T23:58:24.063Z,5.80
